Norfolk, Virginia
Traffic Map
Current Weather Conditions
Norfolk, Virginia
Clear
Clear
45°
Feels Like: 38°
Wind Chill: 38° Ceiling: Unl
Heat Index: 45° Visibility: 10mi
Dew Point: 35° Wind: 17mph
Humidity: 68% Direction: 40° (NE)
Pressure: 30.56in Gusts: 24mph
Raw Report DataKORF 171151Z AUTO 04015G21KT 10SM CLR 07/02 A3056 RMK AO2 SLP346 T00720017 10072 20056 53015 TSNO
Traffic Incident Summary
Active as of:
Severity:
Category:
InformationThere was an issue retrieving the traffic information for this location. Please try a different location or try again shortly.
Advertisements
At Last! Intellicast now available for iPhone and Android